Tiempo atmosférico en la estación meteorológica de Gijón, Campus, Asturias (26 m.)



Fecha
DESCASC
Temp. máxima en grados centígrados (hora)
DESCASC
Temp. mínima en grados centígrados (hora)
DESCASC
Temp. media en grados centígrados
DESCASC
Racha de viento máxima en m/sg (hora)
DESCASC
Velocidad máxima media en intervalos de 10 minutos(hora)
DESCASC
Precipitaciones diarias en mm
DESCASC
Precipitaciones de 00:00 a 06:00 en mm
DESCASC
Precipitaciones de 06:00 a 12:00 en mm
DESCASC
Precipitaciones de 12:00 a 18:00 en mm
DESCASC
Precipitaciones de 18:00 a 24:00 en mm
DESCASC
06-07-2020 19.2 (16:50) 16.7 (09:50) 18 9.44 (18:00) 4.72 (17:40) -- 0.4 -- 0 0
05-07-2020 23 (15:00) 12.7 (06:50) 17.8 -- (--) -- (--) -- -- 0 -- 0
04-07-2020 23.1 (17:40) 10.8 (07:10) 17 -- (--) -- (--) -- 0 0 -- --
03-07-2020 21.2 (15:10) 12.4 (06:20) 16.8 8.06 (16:30) 5 (14:40) 0 0 0 0 0
02-07-2020 19.1 (13:00) 14 (00:00) 16.6 7.5 (14:20) 5 (16:00) 1.8 1 0.8 0 0
01-07-2020 21.5 (10:50) 15.8 (00:00) 18.7 7.5 (13:00) 4.72 (13:00) 0.2 0 0 0 0.2
30-06-2020 -- (--) -- (--) -- -- (--) -- (--) -- -- -- 0 0
29-06-2020 -- (--) -- (--) -- -- (--) -- (--) -- -- 1 0 0
28-06-2020 24 (14:00) 14.9 (00:00) 19.4 8.06 (16:30) 4.44 (16:30) -- 0 0 0 --
27-06-2020 22.6 (12:50) 14.9 (00:00) 18.8 7.22 (16:30) 4.72 (15:40) 0 0 0 0 0
26-06-2020 22.8 (20:00) 15.5 (00:00) 19.1 7.22 (17:10) 4.44 (17:10) 0.4 0 0.4 0 0
25-06-2020 19.3 (13:40) 16 (00:00) 17.6 6.67 (11:50) 3.89 (14:30) 4.4 0 3.6 0.8 0
24-06-2020 23 (13:10) 17.5 (00:00) 20.3 -- (--) -- (--) -- -- 0 1 --
23-06-2020 27.1 (16:30) 15.2 (00:00) 21.2 6.39 (15:00) 4.17 (15:40) 0 0 0 0 0
22-06-2020 24.5 (12:40) 16 (00:00) 20.3 8.33 (17:30) 4.44 (18:30) -- -- 0 0 0
21-06-2020 24.8 (14:50) 11.9 (00:00) 18.3 -- (--) -- (--) -- 0 -- 0 0
20-06-2020 22.5 (15:20) 12.7 (00:00) 17.6 6.11 (16:10) 4.17 (11:30) 0 0 0 0 0
19-06-2020 20.3 (18:30) 13.1 (00:00) 16.7 -- (--) -- (--) -- 0 0 -- --
18-06-2020 20 (14:40) 12.5 (00:00) 16.3 6.67 (12:30) 4.17 (12:20) 0 0 0 0 0
17-06-2020 18.3 (14:10) 13.9 (00:00) 16.1 7.5 (17:40) 4.44 (15:30) 0.2 0 0.2 0 0
16-06-2020 -- (--) -- (--) -- -- (--) -- (--) -- -- -- -- 0.2
15-06-2020 -- (--) -- (--) -- -- (--) -- (--) -- 0 -- -- --
14-06-2020 21.8 (12:20) 10.1 (00:00) 15.9 9.72 (16:00) 7.22 (16:00) -- 0 -- 0 2.4
13-06-2020 21.4 (17:20) 13.2 (00:00) 17.3 11.67 (15:10) 6.39 (15:00) 0.4 0.4 0 0 0
12-06-2020 19.1 (17:50) 11.3 (00:00) 15.2 13.89 (04:00) 7.22 (04:00) 5.8 1.8 1.4 0.2 2.4
11-06-2020 -- (--) -- (--) -- -- (--) -- (--) -- -- -- 0.2 0.8
10-06-2020 19.2 (14:10) 11.7 (00:00) 15.5 -- (--) -- (--) -- -- 0 -- 0
09-06-2020 -- (--) -- (--) -- -- (--) -- (--) -- -- 0 -- 0
08-06-2020 17.9 (15:40) 11.5 (06:50) 14.7 9.44 (15:50) 5.83 (15:50) 2.6 0.8 1.8 0 0
07-06-2020 17.1 (14:30) 11.3 (00:00) 14.2 7.78 (15:40) 5 (15:50) 0.8 0.4 0.4 0 0

Gráficas

Temp. máximas Temp. mínimas Temp. medias Precipitaciones Rachas de viento máximas Velocidades máximas media en intervalos de 10 minutos

Datos horarios

Fecha y hora oficial Temperatura (ºC) Velocidad del viento (km/h) Dirección del viento Racha (km/h) Dirección de racha Precipitación (mm) Presión (hPa) Tendencia (hPa) Humedad (%)
2020-07-06 23:00:00 17.3 13 Este 26 Este 0 1021 0.1 83
2020-07-06 22:00:00 17.6 10 Este 27 Este 0 1020.8 -0.3 80
2020-07-06 21:00:00 18.2 14 Este 26 Este 0 1020.7 -0.7 76
2020-07-06 20:00:00 18.5 13 Este 29 Este 0 1020.9 -0.9 74
2020-07-06 19:00:00 18.8 14 Este 27 Este 0 1021.1 -1 75
2020-07-06 18:00:00 18.9 15 Este 34 Este 0 1021.4 -1.1 74
2020-07-06 17:00:00 19 13 Este 30 Este 0 1021.8 -0.9 75
2020-07-06 16:00:00 18.5 14 Este 32 Este 0 1022.1 -0.6 78
2020-07-06 15:00:00 18.4 13 Este 32 Este 0 1022.5 0 78
2020-07-06 14:00:00 18.4 9 Este 26 Este 0 1022.7 0.5 81
2020-07-06 13:00:00 17.9 8 Nordeste 23 Este 0 1022.7 0.8 86
2020-07-06 12:00:00 17.8 9 Este -- -- -- 1022.5 1.1 87
2020-07-06 11:00:00 16.8 10 Este 26 Nordeste 0.2 1022.2 -- 94
2020-07-06 10:00:00 16.7 9 Este 23 Este 0.2 1021.9 -- 96
2020-07-06 09:00:00 17 9 Nordeste 27 Nordeste 0.4 1021.4 -- 96
2020-07-06 08:00:00 17.8 5 Este 10 Este 0.2 1021 -- 96
2020-07-06 07:00:00 17.4 3 Este 9 Este 0 1020.8 -- 97
2020-07-06 06:00:00 17.4 4 Este 16 Nordeste 0 1020.6 -- 96
2020-07-06 05:00:00 17.7 6 Nordeste 13 Nordeste 0.4 1020.7 -- 97
2020-07-06 04:00:00 18.1 6 Nordeste 13 Nordeste 0 1020.8 -- 95
2020-07-06 03:00:00 18.4 7 Norte 11 Norte 0 1020.8 -- 93
2020-07-06 02:00:00 18.7 3 Nordeste 5 Norte 0 1021 -- 87
2020-07-06 01:00:00 18.8 3 Sudeste 5 Sudeste 0 1021.3 -- 88
2020-07-06 00:00:00 18.8 4 Sudeste 10 Sur 0 1021.6 -- 86
2020-07-05 23:00:00 19 6 Nordeste 10 Nordeste 0 1021.6 -- 86
2020-07-05 22:00:00 19.2 7 Noroeste 19 Norte 0 1021 -- 86
2020-07-05 21:00:00 19.7 10 Norte 16 Norte 0 1020.5 -- 85
2020-07-05 20:00:00 21 10 Noroeste 17 Noroeste 0 1020 -- 81
2020-07-05 19:00:00 22.1 9 Norte 18 Norte 0 1019.8 -- 72
2020-07-05 18:00:00 21.5 10 Norte 18 Norte 0 1020.3 -- 74
2020-07-05 17:00:00 21.9 8 Norte -- -- -- 1020.6 -- 71
2020-07-05 16:00:00 21.9 12 Norte 21 Norte 0 1020.7 -- 75
2020-07-05 15:00:00 23 12 Norte 21 Norte 0 1020.4 -- 68
2020-07-05 14:00:00 22.5 9 Norte 20 Nordeste 0 1020.6 -- 69
2020-07-05 13:00:00 22.2 10 Norte 18 Nordeste 0 1020.3 -- 70
2020-07-05 12:00:00 22.2 10 Norte 18 Norte 0 1020 -- 64
2020-07-05 11:00:00 22.2 9 Nordeste 14 Nordeste 0 1020.3 -- 61
2020-07-05 10:00:00 20.2 3 Norte 8 Norte 0 1020.3 -- 71
2020-07-05 09:00:00 18.2 0 Calma 3 Norte 0 1020 -- 75
2020-07-05 08:00:00 14 2 Sudeste 5 Sudeste 0 1020.2 -- 94
2020-07-05 07:00:00 12.8 4 Sudeste 6 Sudeste 0 1020.3 -- 96
2020-07-05 06:00:00 12.9 4 Sudeste 6 Sudeste 0 1020.3 -- 95
2020-07-05 05:00:00 13.2 4 Sudeste 5 Sudeste 0 1020.2 -- 93
2020-07-05 04:00:00 13.6 5 Sudeste 7 Sudeste 0 1020.4 -- 93
2020-07-05 03:00:00 13.9 5 Sudeste 7 Sudeste 0 1020.8 -- 91
2020-07-05 02:00:00 14.5 4 Sudeste -- -- -- 1021.2 -- 88
2020-07-05 01:00:00 -- -- -- -- -- -- -- -- --
2020-07-05 00:00:00 16.3 4 Sudeste 6 Sudeste 0 1021.9 -- 86
2020-07-04 23:00:00 17.6 4 Sudeste 6 Este 0 1021.9 -- 83
2020-07-04 22:00:00 19.1 4 Norte 8 Norte 0 1021.8 -- 76
2020-07-04 21:00:00 -- -- -- -- -- -- -- -- --
2020-07-04 20:00:00 21.8 9 Norte 17 Norte 0 1021.2 -- 63
2020-07-04 19:00:00 22.9 7 Norte 14 Norte 0 1020.9 -- 49
2020-07-04 18:00:00 22.9 8 Norte 18 Nordeste 0 1021.3 -- 55
2020-07-04 17:00:00 23 9 Norte 21 Nordeste 0 1021.3 -- 60
2020-07-04 16:00:00 -- -- -- -- -- -- -- -- --
2020-07-04 15:00:00 21.5 8 Nordeste 21 Nordeste 0 1021.4 -- 67
2020-07-04 14:00:00 21.3 14 Norte 22 Norte 0 1021.7 -- 69
2020-07-04 13:00:00 21.3 11 Norte 17 Norte 0 1021.6 -- 68
2020-07-04 12:00:00 21.8 10 Norte 16 Nordeste 0 1021.7 -- 64
2020-07-04 11:00:00 20.7 5 Nordeste 11 Norte 0 1021.5 -- 68
2020-07-04 10:00:00 19.3 3 Oeste 8 Noroeste 0 1021.5 -- 72
2020-07-04 09:00:00 16.1 2 Sur 3 Sudeste 0 1021.5 -- 87
2020-07-04 08:00:00 12.2 0 Calma 7 Sudeste 0 1021.5 -- 100
2020-07-04 07:00:00 10.9 6 Sudeste 8 Sudeste 0 1021.3 -- 98
2020-07-04 06:00:00 11.3 5 Sudeste 6 Sudeste 0 1020.9 -- 97
2020-07-04 05:00:00 11.9 5 Sudeste 7 Sudeste 0 1021 -- 97
2020-07-04 04:00:00 12.7 3 Sudeste 7 Sudeste 0 1021.4 -- 95
2020-07-04 03:00:00 13.8 6 Sudeste 8 Sudeste 0 1021.3 -- 94
2020-07-04 02:00:00 15.3 4 Sudeste 5 Sudeste 0 1021.5 -- 89
2020-07-04 01:00:00 16.1 3 Sudeste 4 Sudeste 0 1022.1 -- 84
2020-07-04 00:00:00 16.4 3 Sudeste 6 Sudeste 0 1022.2 -- 81
2020-07-03 23:00:00 17 3 Sudeste 10 Este 0 1022.1 -- 77
2020-07-03 22:00:00 17.9 3 Nordeste 15 Nordeste 0 1021.6 -- 71
2020-07-03 21:00:00 19.1 7 Nordeste 18 Nordeste 0 1021.4 -- 66
2020-07-03 20:00:00 20.4 10 Nordeste 24 Norte 0 1021.4 -- 63
2020-07-03 19:00:00 20.5 13 Norte 24 Nordeste 0 1021.5 -- 62
2020-07-03 18:00:00 20.6 10 Nordeste 26 Nordeste 0 1021.6 -- 62
2020-07-03 17:00:00 20.6 10 Nordeste 29 Nordeste 0 1021.4 -- 60
2020-07-03 16:00:00 21.1 11 Nordeste 24 Nordeste 0 1021.3 -- 60
2020-07-03 15:00:00 20.8 14 Nordeste 28 Norte 0 1021.4 -- 63
2020-07-03 14:00:00 20.7 12 Norte 22 Nordeste 0 1021.9 -- 68
2020-07-03 13:00:00 19.9 8 Nordeste 18 Norte 0 1022.2 -- 63
2020-07-03 12:00:00 18.4 8 Nordeste 14 Nordeste 0 1022.2 -- 74
2020-07-03 11:00:00 17.9 5 Norte 13 Norte 0 1021.9 -- 71
2020-07-03 10:00:00 16.8 4 Oeste 8 Oeste 0 1021.8 -- 72
2020-07-03 09:00:00 14.6 2 Sudeste 4 Oeste 0 1021.5 -- 88
2020-07-03 08:00:00 12.9 2 Sudeste 4 Sudeste 0 1021.4 -- 95
2020-07-03 07:00:00 12.4 0 Calma 6 Sudeste 0 1021 -- 95
2020-07-03 06:00:00 12.8 2 Este 6 Sur 0 1021 -- 93
2020-07-03 05:00:00 14.3 4 Sur 7 Sur 0 1020.8 -- 87
2020-07-03 04:00:00 14.7 4 Oeste 8 Sur 0 1021 -- 84
2020-07-03 03:00:00 15 4 Sudoeste 8 Sudoeste 0 1021.4 -- 83
2020-07-03 02:00:00 14.9 3 Sur 6 Sudoeste 0 1021.6 -- 85
2020-07-03 01:00:00 15 3 Sudoeste 4 Sur 0 1021.6 -- 85
2020-07-03 00:00:00 15.3 0 Calma 8 Sur 0 1021.5 -- 85
2020-07-02 23:00:00 15.7 3 Sur 9 Sur 0 1021.2 -- 85
2020-07-02 22:00:00 15.9 3 Sur 6 Sur 0 1020.7 -- 83
2020-07-02 21:00:00 17 5 Noroeste 19 Noroeste 0 1020.3 -- 75
2020-07-02 20:00:00 17.3 9 Noroeste 18 Noroeste 0 1019.9 -- 71
2020-07-02 19:00:00 17.2 7 Noroeste 17 Noroeste 0 1019.6 -- 79
2020-07-02 18:00:00 17.1 7 Noroeste 23 Noroeste 0 1019.6 -- 79
2020-07-02 17:00:00 17.6 13 Noroeste 26 Norte 0 1019.1 -- 74
2020-07-02 16:00:00 17.8 18 Noroeste 27 Noroeste 0 1018.9 -- 76
2020-07-02 15:00:00 18.4 12 Noroeste 27 Noroeste 0 1018.4 -- 73
2020-07-02 14:00:00 18.4 13 Noroeste 25 Noroeste 0 1018.2 -- 71
2020-07-02 13:00:00 19 14 Norte 22 Norte 0 1018 -- 64
2020-07-02 12:00:00 17.1 9 Noroeste 22 Oeste 0 1017.6 -- 80
2020-07-02 11:00:00 17.7 4 Sudoeste 13 Sur 0 1016.8 -- 81
2020-07-02 10:00:00 15.9 6 Sur 15 Sur 0 1016.5 -- 87
2020-07-02 09:00:00 14.4 3 Sur 12 Sur 0 1016.3 -- 96
2020-07-02 08:00:00 14 5 Sudeste 12 Oeste 0.6 1016 -- 96
2020-07-02 07:00:00 14.2 3 Sudeste 11 Sur 0.2 1015.7 -- 97
2020-07-02 06:00:00 14.9 3 Oeste 8 Norte 0.6 1015.4 -- 96
2020-07-02 05:00:00 14.9 4 Sudeste 12 Oeste 0 1015 -- 95
2020-07-02 04:00:00 15.1 0 Calma 5 Sudoeste 0 1015.1 -- 95
2020-07-02 03:00:00 15.1 3 Sur 6 Sur 0 1015.2 -- 95
2020-07-02 02:00:00 15.1 4 Sudeste 9 Sudeste 0.2 1015.6 -- 97
2020-07-02 01:00:00 15.5 2 Nordeste 5 Oeste 0.2 1015.7 -- 95
2020-07-02 00:00:00 15.8 3 Sudeste 14 Noroeste 0 1015.7 -- 94
2020-07-01 23:00:00 16 4 Sudoeste 12 Noroeste 0.2 1015.4 -- 94
2020-07-01 22:00:00 16.2 5 Noroeste 10 Norte 0 1015 -- 95
2020-07-01 21:00:00 17.1 8 Norte 14 Noroeste 0 1014.5 -- 86
2020-07-01 20:00:00 17.5 5 Norte 19 Noroeste 0 1014.3 -- 82
2020-07-01 19:00:00 18.1 10 Noroeste 18 Noroeste 0 1014.2 -- 79
2020-07-01 18:00:00 18 8 Noroeste 21 Noroeste 0 1014.3 -- 79
2020-07-01 17:00:00 18.3 11 Noroeste 22 Noroeste 0 1014.2 -- 79
2020-07-01 16:00:00 18.2 8 Noroeste 23 Norte 0 1013.9 -- 82
2020-07-01 15:00:00 17.9 10 Noroeste 23 Noroeste 0 1013.6 -- 87
2020-07-01 14:00:00 18 14 Noroeste 23 Noroeste 0 1013.3 -- 88
2020-07-01 13:00:00 18.1 17 Noroeste 27 Noroeste 0 1012.8 -- 92
2020-07-01 12:00:00 19.9 11 Norte 22 Norte 0 1012 -- 85
2020-07-01 11:00:00 20.7 12 Norte 17 Norte 0 1011.5 -- 79
2020-07-01 10:00:00 20.7 3 Sudeste 6 Sur 0 1011 -- 77
2020-07-01 09:00:00 19.7 3 Sur 5 Sudeste 0 1010.8 -- 80
2020-07-01 08:00:00 19.1 4 Sur 13 Noroeste 0 1010.6 -- 81
2020-07-01 07:00:00 19.2 5 Oeste 15 Oeste 0 1010.4 -- 78
2020-07-01 06:00:00 18.8 3 Sur 10 Noroeste 0 1010 -- 86
2020-07-01 05:00:00 18.9 6 Noroeste 10 Noroeste 0 1009.6 -- 83
2020-07-01 04:00:00 18.9 0 Calma 5 Sudeste 0 1009.6 -- 82
2020-07-01 03:00:00 18.9 2 Sur 4 Sudeste 0 1009.9 -- 80
2020-07-01 02:00:00 19.1 2 Sur 4 Sur 0 1010.4 -- 78
2020-07-01 01:00:00 19.5 2 Nordeste 6 Noroeste 0 1010.9 -- 74
2020-07-01 00:00:00 19.7 4 Noroeste 6 Noroeste 0 1010.8 -- 61
2020-06-30 23:00:00 20 4 Norte 6 Noroeste 0 1010.7 -- 75
2020-06-30 22:00:00 20.2 2 Sudeste 14 Nordeste 0 1010.7 -- 70
2020-06-30 21:00:00 21 10 Norte 17 Nordeste 0 1010.2 -- 68
2020-06-30 20:00:00 23.2 11 Norte 20 Norte 0 1009.7 -- 66
2020-06-30 19:00:00 23.4 7 Nordeste 24 Nordeste 0 1010.1 -- 61
2020-06-30 18:00:00 24.1 12 Nordeste 21 Nordeste 0 1010.2 -- 64
2020-06-30 17:00:00 23.3 11 Norte -- -- -- 1010.9 -- 63
2020-06-30 16:00:00 22.9 12 Nordeste 23 Norte 0 1011 -- 60
2020-06-30 15:00:00 22.8 12 Norte 23 Norte 0 1011.5 -- 66
2020-06-30 14:00:00 22.4 15 Norte 24 Norte 0 1011.8 -- 65
2020-06-30 13:00:00 22.4 12 Norte 17 Nordeste 0 1012 -- 58
2020-06-30 12:00:00 21.7 13 Norte 18 Norte 0 1012.3 -- 68
2020-06-30 11:00:00 21.6 5 Norte 12 Nordeste 0 1012.4 -- 65
2020-06-30 10:00:00 19.9 3 Noroeste 7 Norte 0 1012.8 -- 73
2020-06-30 09:00:00 17.6 0 Calma 4 Este 0 1012.6 -- 86
2020-06-30 08:00:00 14 3 Este 7 Sudeste 0 1012.9 -- 100
2020-06-30 07:00:00 12.2 3 Sudeste -- -- -- 1013.2 -- 100
2020-06-30 06:00:00 12.4 2 Sudeste 6 Sudeste 0 1013.1 -- 99
2020-06-30 05:00:00 12.8 2 Sudeste 4 Sudeste 0 1013.6 -- 99
2020-06-30 04:00:00 13.2 0 Calma -- -- -- 1014.2 -- 99
2020-06-30 03:00:00 13.5 4 Sudeste -- -- -- 1014.9 -- 98
2020-06-30 02:00:00 -- -- -- -- -- -- -- -- --
2020-06-30 01:00:00 14.6 2 Este 6 Sudeste 0 1016.1 -- 97
2020-06-30 00:00:00 15.1 5 Sudeste 6 Sudeste 0 1016.2 -- 96
2020-06-29 23:00:00 16.3 3 Sur 6 Norte 0 1016.1 -- 91
2020-06-29 22:00:00 18.3 4 Nordeste 11 Norte 0 1015.9 -- 81
2020-06-29 21:00:00 19.8 4 Nordeste 17 Norte 0 1016.1 -- 73
2020-06-29 20:00:00 20 8 Nordeste 17 Nordeste 0 1016.5 -- 72
2020-06-29 19:00:00 19.8 7 Nordeste 17 Norte 0 1016.8 -- 71
2020-06-29 18:00:00 19.7 10 Norte 19 Norte 0 1017 -- 74
2020-06-29 17:00:00 19.5 12 Nordeste 17 Nordeste 0 1017.4 -- 72
2020-06-29 16:00:00 19.3 9 Nordeste 18 Norte 0 1017.9 -- 78
2020-06-29 15:00:00 18.6 7 Nordeste 15 Norte 0 1018.3 -- 81
2020-06-29 14:00:00 17.9 8 Norte 15 Norte 0 1019 -- 84
2020-06-29 13:00:00 17.1 6 Norte 15 Norte 0 1019.1 -- 91
2020-06-29 12:00:00 16.6 9 Norte 17 Nordeste 0 1019 -- 93
2020-06-29 11:00:00 16.4 6 Nordeste 14 Norte 0 1018.8 -- 96
2020-06-29 10:00:00 16.2 5 Norte 9 Norte 0 1018.7 -- 97
2020-06-29 09:00:00 15.7 6 Norte 8 Norte 0.2 1018.5 -- 98
2020-06-29 08:00:00 15.4 5 Norte 12 Norte 0.4 1018.4 -- 98
2020-06-29 07:00:00 15.8 4 Norte 8 Nordeste 0.4 1018.2 -- 98
2020-06-29 06:00:00 -- -- -- -- -- -- -- -- --
2020-06-29 05:00:00 15.8 0 Calma 5 Sudeste 0 1018 -- 98
2020-06-29 04:00:00 15.7 2 Sur 5 Sudeste 0 1018.1 -- 98
2020-06-29 03:00:00 15.9 3 Sur 6 Oeste 0 1018.3 -- 97
2020-06-29 02:00:00 -- -- -- -- -- -- -- -- --
2020-06-29 01:00:00 16.6 3 Noroeste 7 Norte 0.6 1018.8 -- 97
2020-06-29 00:00:00 17 2 Sur 5 Oeste 0 1018.7 -- 97
2020-06-28 23:00:00 17.1 2 Sudeste 14 Norte 0.2 1018.5 -- 97
2020-06-28 22:00:00 -- -- -- -- -- -- -- -- --
2020-06-28 21:00:00 17.5 8 Noroeste 19 Noroeste 0.2 1018 -- 96
2020-06-28 20:00:00 18.1 10 Norte 19 Norte 0.2 1017.7 -- 95
2020-06-28 19:00:00 19.5 10 Noroeste 24 Noroeste 0 1017.3 -- 85
2020-06-28 18:00:00 20.3 12 Norte 20 Norte 0 1017.1 -- 83
2020-06-28 17:00:00 20.6 11 Norte 29 Norte 0 1017 -- 80
2020-06-28 16:00:00 22.2 10 Norte 22 Noroeste 0 1016.7 0.4 71
2020-06-28 15:00:00 22.7 14 Norte 23 Noroeste 0 1016.6 -- 63
2020-06-28 14:00:00 23.9 8 Noroeste 15 Norte 0 1016.2 -- 59
2020-06-28 13:00:00 22.3 6 Norte 18 Norte 0 1016.3 -- 68
2020-06-28 12:00:00 23.3 5 Norte 13 Norte 0 1015.9 -- 67
2020-06-28 11:00:00 21.1 3 Sudoeste 6 Noroeste 0 1015.8 -- 78
2020-06-28 10:00:00 19 0 Calma 4 Noroeste 0 1016.2 -- 81
2020-06-28 09:00:00 17.2 0 Calma 5 Sudeste 0 1015.9 -- 91
2020-06-28 08:00:00 15.4 2 Este 6 Sur 0 1015.8 -- 96
2020-06-28 07:00:00 15 4 Sudeste 8 Este 0 1015.6 -- 96
2020-06-28 06:00:00 16.4 4 Sudeste 5 Este 0 1015.6 -- 94
2020-06-28 05:00:00 17.1 0 Calma 6 Sudeste 0 1015.7 -- 91
2020-06-28 04:00:00 17.2 3 Sudeste 5 Sudeste 0 1015.9 -- 91
2020-06-28 03:00:00 17.3 2 Sudeste 4 Sudoeste 0 1016.2 -- 89
2020-06-28 02:00:00 17.4 0 Calma 6 Sur 0 1016.3 -- 86
2020-06-28 01:00:00 17.4 3 Sur 7 Sur 0 1016.4 -- 86
2020-06-28 00:00:00 17.6 4 Sur 8 Sur 0 1016.6 -- 83
2020-06-27 23:00:00 17.8 3 Sudoeste 14 Oeste 0 1016.4 -- 82
2020-06-27 22:00:00 18 3 Oeste 15 Norte 0 1015.7 -- 83
2020-06-27 21:00:00 18.5 9 Noroeste 15 Norte 0 1015.3 -- 80
2020-06-27 20:00:00 18.7 9 Noroeste 19 Noroeste 0 1015.1 -- 80
2020-06-27 19:00:00 19.2 12 Noroeste 19 Noroeste 0 1014.5 -- 78
2020-06-27 18:00:00 19 8 Norte 18 Norte 0 1014.4 -- 81
2020-06-27 17:00:00 18.7 10 Norte 26 Norte 0 1014.3 -- 85
2020-06-27 16:00:00 20.1 17 Norte 24 Norte 0 1014.4 -- 82
2020-06-27 15:00:00 20.3 11 Norte 21 Noroeste 0 1013.8 -- 83
2020-06-27 14:00:00 20.3 11 Norte 22 Norte 0 1013.7 -- 82
2020-06-27 13:00:00 22.5 5 Norte 8 Norte 0 1012.7 -- 75
2020-06-27 12:00:00 21.2 0 Calma 5 Sudeste 0 1012.3 -- 82
2020-06-27 11:00:00 20.2 0 Calma 6 Oeste 0 1012.1 -- 84
2020-06-27 10:00:00 19.3 3 Sudeste 7 Sudeste 0 1012.1 -- 88
2020-06-27 09:00:00 18.3 4 Sudeste 6 Sudeste 0 1011.7 -- 94
2020-06-27 08:00:00 16.7 0 Calma 4 Sur 0 1011 -- 97
2020-06-27 07:00:00 16.2 2 Sur 6 Sudeste 0 1010.9 -- 97
2020-06-27 06:00:00 15.7 0 Calma 6 Norte 0 1011 -- 98
2020-06-27 05:00:00 15.1 2 Este 7 Sudeste 0 1011.1 -- 98
2020-06-27 04:00:00 15.2 3 Sudeste 6 Sudeste 0 1010.9 -- 97
2020-06-27 03:00:00 15.6 5 Sudeste 8 Sudeste 0 1011.1 -- 97
2020-06-27 02:00:00 16.1 0 Calma 6 Sudeste 0 1011.2 -- 96
2020-06-27 01:00:00 16.8 4 Sudeste 6 Este 0 1011.1 -- 95
2020-06-27 00:00:00 17.6 5 Sudeste 6 Sudeste 0 1011.1 -- 94
2020-06-26 23:00:00 18.6 2 Sudeste 5 Sudeste 0 1010.9 -- 90
2020-06-26 22:00:00 20.2 3 Sur 6 Noroeste 0 1010.4 -- 84
2020-06-26 21:00:00 21.7 3 Noroeste 9 Norte 0 1010.2 -- 77
2020-06-26 20:00:00 22.6 6 Este 18 Este 0 1010.1 -- 71
2020-06-26 19:00:00 21.3 10 Este 20 Este 0 1010.3 -- 74
2020-06-26 18:00:00 20.2 9 Nordeste 26 Nordeste 0 1010.9 -- 76
2020-06-26 17:00:00 22 9 Nordeste 22 Norte 0 1010.9 -- 72
2020-06-26 16:00:00 21.7 10 Nordeste 21 Norte 0 1011.4 -- 72
2020-06-26 15:00:00 20.3 9 Norte 18 Norte 0 1011.9 -- 80
2020-06-26 14:00:00 19.8 8 Nordeste 14 Norte 0 1012.3 -- 78
2020-06-26 13:00:00 18.2 4 Sudeste 8 Norte 0 1012.4 -- 82
2020-06-26 12:00:00 17 6 Norte 11 Norte 0 1012.4 -- 88
2020-06-26 11:00:00 17.3 3 Este 5 Nordeste 0 1012.5 -- 88
2020-06-26 10:00:00 16.4 3 Sur 6 Sudeste 0 1012.4 -- 94
2020-06-26 09:00:00 15.7 3 Sudeste 5 Sudeste 0 1012.3 -- 97
2020-06-26 08:00:00 15.5 2 Oeste 5 Noroeste 0.4 1012.4 -- 98
2020-06-26 07:00:00 15.6 0 Calma 4 Sudoeste 0 1012.5 -- 96
2020-06-26 06:00:00 15.8 3 Sudeste 4 Sur 0 1012.5 -- 95
2020-06-26 05:00:00 15.9 3 Sur 7 Sur 0 1012.5 -- 94
2020-06-26 04:00:00 16.2 4 Sur 8 Sur 0 1012.9 -- 93
2020-06-26 03:00:00 16.5 3 Sur 6 Sur 0 1013.3 -- 92
2020-06-26 02:00:00 16.8 3 Noroeste 13 Oeste 0 1014 -- 89
2020-06-26 01:00:00 17 3 Noroeste 13 Noroeste 0 1014 -- 88
2020-06-26 00:00:00 17.3 4 Noroeste 14 Oeste 0 1014.3 -- 86
2020-06-25 23:00:00 17.3 6 Oeste 21 Noroeste 0 1014.2 -- 85
2020-06-25 22:00:00 17.5 10 Noroeste 21 Noroeste 0 1013.7 -- 85
2020-06-25 21:00:00 18 6 Oeste 15 Oeste 0 1013.2 -- 84
2020-06-25 20:00:00 18 7 Oeste 14 Oeste 0 1013 -- 85
2020-06-25 19:00:00 17.6 4 Sudoeste 10 Oeste 0 1013 -- 90
2020-06-25 18:00:00 17.3 3 Noroeste 20 Noroeste 0.2 1013.4 -- 92
2020-06-25 17:00:00 17.2 5 Oeste 21 Noroeste 0.6 1014.2 -- 90
2020-06-25 16:00:00 18 13 Noroeste 21 Noroeste 0 1013.5 -- 85
2020-06-25 15:00:00 18.6 12 Norte 23 Noroeste 0 1013.4 -- 84
2020-06-25 14:00:00 19.2 14 Noroeste 24 Noroeste 0 1013.3 -- 81
2020-06-25 13:00:00 18.7 8 Noroeste 23 Noroeste 0 1013.5 -- 81
2020-06-25 12:00:00 18.7 12 Noroeste 24 Noroeste 0 1013.5 -- 82
2020-06-25 11:00:00 18.2 8 Noroeste 19 Noroeste 0 1013.5 -- 84
2020-06-25 10:00:00 17.5 7 Oeste 12 Oeste 0 1013.4 -- 90
2020-06-25 09:00:00 16.8 2 Sur 19 Noroeste 2.8 1012.8 -- 97
2020-06-25 08:00:00 16.5 3 Oeste 14 Oeste 0.8 1012.7 -- 96
2020-06-25 07:00:00 16.2 6 Oeste 12 Oeste 0 1012.4 -- 96
2020-06-25 06:00:00 16.1 3 Oeste 6 Oeste 0 1012.3 -- 97
2020-06-25 05:00:00 16.3 2 Sudoeste 10 Sudoeste 0 1012.5 -- 96
2020-06-25 04:00:00 17 4 Sudoeste 9 Sur 0 1013.1 -- 95
2020-06-25 03:00:00 17.2 4 Sur 12 Oeste 0 1013.6 -- 95
2020-06-25 02:00:00 17.3 5 Oeste 12 Oeste 0 1013.6 -- 94
2020-06-25 01:00:00 17.3 3 Oeste 15 Norte 0 1013.3 -- 96
2020-06-25 00:00:00 17.7 4 Sur 24 Noroeste 0 1013.1 -- 95
2020-06-24 23:00:00 18 6 Norte 13 Oeste 0.8 1012 -- 95
2020-06-24 22:00:00 18 4 Oeste 11 Norte 0.8 1013.7 -- 94
2020-06-24 21:00:00 -- -- -- -- -- -- -- -- --
2020-06-24 20:00:00 19.4 5 Sudeste 14 Sudoeste 0.2 1011.2 -- 94
2020-06-24 19:00:00 18.2 6 Sudoeste 26 Sudoeste 4.6 1012.5 -- 94
2020-06-24 18:00:00 18.9 6 Noroeste 20 Oeste 1 1013 -- 89
2020-06-24 17:00:00 20.2 11 Noroeste 30 Norte 0 1012.7 -- 78
2020-06-24 16:00:00 22.2 18 Noroeste 31 Noroeste 0 1012 -- 71
2020-06-24 15:00:00 22.1 21 Norte 28 Norte 0 1011.8 -- 73
2020-06-24 14:00:00 22.7 15 Norte 25 Norte 0 1011.7 -- 72
2020-06-24 13:00:00 22.8 8 Noroeste 15 Oeste 0 1011.5 -- 72
2020-06-24 12:00:00 20.8 6 Sudoeste 15 Oeste 0 1011.5 -- 80
2020-06-24 11:00:00 19.3 7 Oeste 16 Oeste 0 1011.7 -- 85
2020-06-24 10:00:00 18.7 8 Oeste 14 Noroeste 0 1012.1 -- 89
2020-06-24 09:00:00 18.2 8 Oeste 17 Oeste 0 1012 -- 90
2020-06-24 08:00:00 18 9 Oeste 20 Oeste 0 1011.8 -- 91
2020-06-24 07:00:00 17.8 10 Oeste 16 Oeste 0 1011.6 -- 93
2020-06-24 06:00:00 17.6 7 Oeste 19 Oeste 0 1011.3 -- 95
2020-06-24 05:00:00 17.7 5 Oeste 11 Oeste 0 1010.8 -- 96
2020-06-24 04:00:00 18 6 Oeste 13 Noroeste 0 1011.1 -- 95
2020-06-24 03:00:00 18 9 Noroeste 14 Noroeste 0 1011.2 -- 95
2020-06-24 02:00:00 17.5 4 Sudoeste 8 Sudoeste 0 1011.4 -- 95
2020-06-24 01:00:00 -- -- -- -- -- -- -- -- --
2020-06-24 00:00:00 18.7 4 Sur 8 Sur 0 1011.3 -- 91
2020-06-23 23:00:00 20 3 Sur 13 Este 0 1010.8 -- 86
2020-06-23 22:00:00 22.1 6 Este 12 Este 0 1010.1 -- 76
2020-06-23 21:00:00 25.4 3 Nordeste 12 Este 0 1009.9 -- 65
2020-06-23 20:00:00 26.2 6 Nordeste 18 Norte 0 1009.8 -- 65
2020-06-23 19:00:00 25.9 11 Norte 17 Nordeste 0 1009.9 -- 66
2020-06-23 18:00:00 26.4 11 Nordeste 19 Norte 0 1010.2 -- 66
2020-06-23 17:00:00 26.9 10 Nordeste 21 Nordeste 0 1010.6 -- 64
2020-06-23 16:00:00 26.7 13 Nordeste 22 Norte 0 1010.9 -- 65
2020-06-23 15:00:00 26.1 14 Norte 23 Norte 0 1011.4 -- 65
2020-06-23 14:00:00 25.2 12 Norte 19 Norte 0 1011.8 -- 69
2020-06-23 13:00:00 23.4 8 Norte 13 Norte 0 1012.4 -- 74
2020-06-23 12:00:00 21.1 10 Norte 17 Nordeste 0 1012.6 -- 80
2020-06-23 11:00:00 19.4 5 Noroeste 8 Noroeste 0 1013 -- 87
2020-06-23 10:00:00 16.7 2 Norte 6 Sur 0 1013.7 -- 97
2020-06-23 09:00:00 16 3 Sur 7 Sudeste 0 1013.8 -- 99
2020-06-23 08:00:00 15.8 4 Sudeste 6 Sur 0 1013.8 -- 99
2020-06-23 07:00:00 16 2 Sur 5 Este 0 1013.9 -- 99
2020-06-23 06:00:00 16.1 2 Oeste 7 Sur 0 1014.1 -- 99
2020-06-23 05:00:00 16.2 4 Sudeste 8 Sudoeste 0 1014.5 -- 98
2020-06-23 04:00:00 15.3 4 Sudeste 6 Sudeste 0 1015.1 -- 97
2020-06-23 03:00:00 16 2 Sudeste 8 Sudeste 0 1016 -- 95
2020-06-23 02:00:00 16.4 3 Sudeste 10 Este 0 1016.5 -- 93
2020-06-23 01:00:00 17.3 4 Sur 14 Nordeste 0 1016.9 -- 92
2020-06-23 00:00:00 18 5 Nordeste 14 Este 0 1017.2 -- 91
2020-06-22 23:00:00 18.3 4 Nordeste 18 Este 0 1017.2 -- 89
2020-06-22 22:00:00 19.3 7 Este 26 Nordeste 0 1016.8 -- 84
2020-06-22 21:00:00 21.1 12 Este 23 Este 0 1016.8 -- 76
2020-06-22 20:00:00 22.6 11 Este 26 Este 0 1017 -- 69
2020-06-22 19:00:00 23.8 9 Este 30 Este 0 1017.3 -- 65
2020-06-22 18:00:00 23.6 14 Este 30 Este 0 1017.8 -- 66
2020-06-22 17:00:00 24.1 10 Nordeste 29 Este 0 1018.1 -- 67
2020-06-22 16:00:00 24.2 10 Nordeste 25 Este 0 1018.7 -- 69
2020-06-22 15:00:00 24 11 Nordeste 26 Nordeste 0 1019.3 -- 72
2020-06-22 14:00:00 24.1 13 Nordeste 27 Este 0 1019.7 -- 71
2020-06-22 13:00:00 23.9 13 Este 27 Este 0 1020 -- 69
2020-06-22 12:00:00 23.1 10 Este 21 Este 0 1020.5 -- 71
2020-06-22 11:00:00 21.5 9 Este 21 Este 0 1021.2 -- 74
2020-06-22 10:00:00 19.6 6 Este 15 Este 0 1021.8 -- 81
2020-06-22 09:00:00 18.5 4 Este 10 Sudeste 0 1022 -- 84
2020-06-22 08:00:00 17.4 3 Norte 10 Sur 0 1022.2 -- 90
2020-06-22 07:00:00 16 3 Sudeste 5 Sur 0 1022.2 -- 96
2020-06-22 06:00:00 16.9 2 Sur 10 Este 0 1022.4 -- 92
2020-06-22 05:00:00 17.6 3 Nordeste 12 Este 0 1022.8 -- 90
2020-06-22 04:00:00 17.5 5 Este 10 Este 0 1023.2 -- 92
2020-06-22 03:00:00 17.4 4 Este 10 Nordeste 0 1023.8 -- 91
2020-06-22 02:00:00 17.6 3 Nordeste 9 Nordeste 0 1024.4 -- 89
2020-06-22 01:00:00 17.8 3 Nordeste -- -- -- 1024.8 -- 88
2020-06-22 00:00:00 17.9 5 Nordeste 9 Nordeste 0 1025.2 -- 86
2020-06-21 23:00:00 18.1 6 Norte 12 Norte 0 1024.9 -- 88
2020-06-21 22:00:00 18.4 9 Norte 15 Norte 0 1024.5 -- 89
2020-06-21 21:00:00 19 9 Norte 15 Norte 0 1024.3 -- 86
2020-06-21 20:00:00 19.6 8 Norte 14 Norte 0 1023.8 -- 82
2020-06-21 19:00:00 20.4 12 Norte 22 Noroeste 0 1023.7 -- 79
2020-06-21 18:00:00 21.6 10 Norte 22 Norte 0 1023.4 -- 71
2020-06-21 17:00:00 22.3 14 Norte 21 Norte 0 1023.3 -- 63
2020-06-21 16:00:00 23.3 9 Nordeste 24 Noroeste 0 1022.9 -- 59
2020-06-21 15:00:00 24.2 13 Norte 20 Norte 0 1022.3 -- 54
2020-06-21 14:00:00 23.6 11 Norte 17 Norte 0 1022.3 -- 58
2020-06-21 13:00:00 24.4 9 Norte 15 Norte 0 1021.9 -- 57
2020-06-21 12:00:00 23.3 7 Norte 13 Norte 0 1021.7 -- 60
2020-06-21 11:00:00 23.1 3 Sudeste 11 Este 0 1021.8 -- 57
2020-06-21 10:00:00 20.4 3 Oeste 7 Oeste 0 1021.9 -- 63
2020-06-21 09:00:00 17.5 2 Oeste -- -- -- 1021.2 -- 83
2020-06-21 08:00:00 -- -- -- -- -- -- -- -- --
2020-06-21 07:00:00 11.9 3 Sudeste 6 Sudeste 0 1020.7 -- 98
2020-06-21 06:00:00 12.2 3 Sudeste 6 Sudeste 0 1020.6 -- 98
2020-06-21 05:00:00 12.4 5 Sudeste 7 Sudeste 0 1020.4 -- 97
2020-06-21 04:00:00 12.9 4 Sudeste 7 Sur 0 1020.4 -- 97
2020-06-21 03:00:00 13.4 3 Sudeste 6 Sudeste 0 1020.4 -- 96
2020-06-21 02:00:00 14.1 3 Sudeste 5 Sudeste 0 1020.7 -- 94
2020-06-21 01:00:00 15 4 Sudeste 6 Sudeste 0 1021 -- 93
2020-06-21 00:00:00 16.2 3 Sudeste 9 Este 0 1020.9 -- 90
2020-06-20 23:00:00 16.8 3 Sudeste 8 Este 0 1020.7 -- 87
2020-06-20 22:00:00 17.8 4 Nordeste 14 Norte 0 1020.3 -- 81
2020-06-20 21:00:00 19.4 10 Norte 20 Norte 0 1020.3 -- 79
2020-06-20 20:00:00 20.2 14 Norte 20 Norte 0 1020.1 -- 68
2020-06-20 19:00:00 21.5 7 Nordeste 21 Norte 0 1019.7 -- 64
2020-06-20 18:00:00 21.4 12 Nordeste 21 Norte 0 1019.7 -- 69
2020-06-20 17:00:00 21.8 10 Nordeste 22 Nordeste 0 1019.5 -- 68
2020-06-20 16:00:00 22 13 Nordeste 21 Nordeste 0 1019.5 -- 68
2020-06-20 15:00:00 21.8 11 Nordeste 22 Nordeste 0 1019.6 -- 64
2020-06-20 14:00:00 21.1 12 Norte 21 Norte 0 1019.8 -- 70
2020-06-20 13:00:00 20.5 11 Norte 19 Norte 0 1019.8 -- 73
2020-06-20 12:00:00 19.5 11 Norte 21 Noroeste 0 1019.6 -- 78
2020-06-20 11:00:00 20.8 10 Norte 16 Norte 0 1019.3 -- 67
2020-06-20 10:00:00 18.6 2 Norte 4 Oeste 0 1019.3 -- 79
2020-06-20 09:00:00 15.7 2 Este 7 Este 0 1019.2 -- 90
2020-06-20 08:00:00 13.6 0 Calma 6 Sudeste 0 1019.1 -- 97
2020-06-20 07:00:00 12.7 2 Sudeste 5 Sudeste 0 1018.8 -- 97
2020-06-20 06:00:00 13.3 4 Sudeste 6 Sudeste 0 1018.8 -- 96
2020-06-20 05:00:00 13.7 0 Calma 4 Sudeste 0 1019.1 -- 95
2020-06-20 04:00:00 13.2 4 Sudeste 6 Sudeste 0 1019.1 -- 95
2020-06-20 03:00:00 13 5 Sudeste 8 Sudeste 0 1019.2 -- 95
2020-06-20 02:00:00 13.7 4 Sudeste 7 Sudeste 0 1019.2 -- 93
2020-06-20 01:00:00 14.9 3 Sudeste 5 Sur 0 1019.4 -- 91
2020-06-20 00:00:00 16.5 0 Calma 5 Sur 0 1019.5 -- 84
2020-06-19 23:00:00 16.7 2 Sudeste 9 Nordeste 0 1019.3 -- 83
2020-06-19 22:00:00 17.3 7 Nordeste 19 Norte 0 1019 -- 79
2020-06-19 21:00:00 18.6 13 Norte 25 Norte 0 1018.4 -- 74
2020-06-19 20:00:00 19.3 5 Este -- -- -- 1018.1 -- 63
2020-06-19 19:00:00 -- -- -- -- -- -- -- -- --
2020-06-19 18:00:00 -- -- -- -- -- -- -- -- --
2020-06-19 17:00:00 19.9 9 Nordeste 23 Norte 0 1017.6 -- 60
2020-06-19 16:00:00 19.7 10 Nordeste 20 Nordeste 0 1017.6 -- 62
2020-06-19 15:00:00 19.1 11 Norte 20 Norte 0 1017.6 -- 62
2020-06-19 14:00:00 19.1 14 Norte 21 Norte 0 1017.5 -- 60
2020-06-19 13:00:00 18.7 12 Norte 18 Noroeste 0 1017.4 -- 73
2020-06-19 12:00:00 17.3 9 Norte 18 Noroeste 0 1017.2 -- 77
2020-06-19 11:00:00 18.7 7 Este 14 Nordeste 0 1017 -- 67
2020-06-19 10:00:00 16.9 4 Noroeste 12 Noroeste 0 1017.2 -- 76
2020-06-19 09:00:00 16.4 4 Este 6 Sudeste 0 1016.6 -- 83
2020-06-19 08:00:00 14.1 0 Calma 4 Sudeste 0 1016.5 -- 92
2020-06-19 07:00:00 13.2 2 Sudeste 6 Sudeste 0 1016 -- 95
2020-06-19 06:00:00 13.7 4 Sudeste 5 Sudeste 0 1015.8 -- 94
2020-06-19 05:00:00 13.4 3 Sudeste 6 Sudeste 0 1015.7 -- 94
2020-06-19 04:00:00 13.8 2 Este 5 Sudeste 0 1015.7 -- 92
2020-06-19 03:00:00 14.6 4 Sudeste 5 Sudeste 0 1015.9 -- 89
2020-06-19 02:00:00 15 4 Sudeste 5 Sudeste 0 1016.2 -- 87
2020-06-19 01:00:00 15.5 3 Sudeste 5 Sudeste 0 1016.3 -- 82
2020-06-19 00:00:00 16.1 3 Norte 5 Norte 0 1016.2 -- 79
2020-06-18 23:00:00 16.4 0 Calma 3 Sudeste 0 1015.8 -- 75
2020-06-18 22:00:00 16.6 3 Sudeste 5 Sudeste 0 1015.1 -- 74
2020-06-18 21:00:00 16.9 4 Este 10 Nordeste 0 1014.8 -- 72
2020-06-18 20:00:00 17.4 4 Nordeste 18 Norte 0 1014.6 -- 73
2020-06-18 19:00:00 18.4 11 Norte 19 Norte 0 1014.3 -- 67
2020-06-18 18:00:00 18.8 10 Norte 20 Norte 0 1014.3 -- 68
2020-06-18 17:00:00 18.3 10 Norte 23 Norte 0 1014.5 -- 72
2020-06-18 16:00:00 19.9 13 Norte 22 Nordeste 0 1014.4 -- 63
2020-06-18 15:00:00 19.4 13 Norte 21 Nordeste 0 1014.3 -- 60
2020-06-18 14:00:00 18.7 11 Norte 22 Norte 0 1014.1 0.5 64
2020-06-18 13:00:00 18.4 13 Norte 24 Norte 0 1014.3 -- 69
2020-06-18 12:00:00 18.2 13 Norte 23 Noroeste 0 1014 -- 68
2020-06-18 11:00:00 18.3 9 Noroeste 15 Norte 0 1013.6 -- 65
2020-06-18 10:00:00 17.3 6 Oeste 13 Oeste 0 1013.7 -- 63
2020-06-18 09:00:00 16.1 5 Sur 10 Sudoeste 0 1013.3 -- 76
2020-06-18 08:00:00 13.1 2 Sudeste 3 Sudeste 0 1013.3 -- 95
2020-06-18 07:00:00 12.6 2 Oeste 4 Nordeste 0 1013.3 -- 96
2020-06-18 06:00:00 12.8 3 Sudeste 4 Sudeste 0 1013.3 -- 95
2020-06-18 05:00:00 13.1 2 Este 4 Sudeste 0 1013.7 -- 96
2020-06-18 04:00:00 13.1 3 Sudeste 4 Sudeste 0 1014 -- 95
2020-06-18 03:00:00 13.5 0 Calma 3 Sudeste 0 1014.3 -- 92
2020-06-18 02:00:00 13.9 0 Calma 4 Sudeste 0 1014.4 -- 90
2020-06-18 01:00:00 14.2 2 Sudeste 4 Sudeste 0 1014.9 -- 90
2020-06-18 00:00:00 14.5 3 Sur 5 Sudoeste 0 1015.2 -- 85
2020-06-17 23:00:00 14.7 3 Sur 7 Sur 0 1015.1 -- 85
2020-06-17 22:00:00 14.9 4 Sur 6 Sur 0 1014.7 -- 84
2020-06-17 21:00:00 15.5 4 Oeste 10 Oeste 0 1014.7 -- 84
2020-06-17 20:00:00 16 3 Sudoeste 14 Noroeste 0 1014.8 -- 78
2020-06-17 19:00:00 16.8 5 Oeste 22 Noroeste 0 1014.9 -- 71
2020-06-17 18:00:00 16.7 16 Noroeste 27 Noroeste 0 1015.2 -- 74
2020-06-17 17:00:00 16.8 15 Noroeste 25 Norte 0 1015.4 -- 78
2020-06-17 16:00:00 17.9 15 Noroeste 27 Noroeste 0 1015.4 -- 70
2020-06-17 15:00:00 17.7 15 Noroeste 27 Noroeste 0 1015.6 -- 75
2020-06-17 14:00:00 18.1 7 Noroeste 15 Oeste 0 1015.7 -- 70
2020-06-17 13:00:00 17 6 Sudoeste 18 Oeste 0 1016 -- 73
2020-06-17 12:00:00 15.6 9 Oeste 22 Sudoeste 0 1016.2 -- 84
2020-06-17 11:00:00 15.1 5 Sudoeste 13 Sudoeste 0.2 1016.1 -- 86
2020-06-17 10:00:00 15.2 6 Sudoeste 19 Oeste 0 1016 -- 83
2020-06-17 09:00:00 15.1 4 Oeste 8 Sudoeste 0 1015.8 -- 81
2020-06-17 08:00:00 14.1 3 Sur 6 Sudeste 0 1015.7 -- 87
2020-06-17 07:00:00 14.2 3 Sudoeste 17 Oeste 0 1015.6 -- 87
2020-06-17 06:00:00 14.4 2 Oeste 9 Sudoeste 0 1015.3 -- 83
2020-06-17 05:00:00 14.5 4 Sudoeste 11 Sudoeste 0 1015.5 -- 83
2020-06-17 04:00:00 14.2 3 Sudoeste 12 Sur 0 1015.9 -- 86
2020-06-17 03:00:00 14.4 7 Sudoeste 13 Sudoeste 0 1016.4 -- 84
2020-06-17 02:00:00 14.5 3 Sudoeste 12 Sudoeste 0 1017 -- 87
2020-06-17 01:00:00 14.8 5 Sudoeste 13 Oeste 0 1017.5 -- 88
2020-06-17 00:00:00 15.3 -- -- 18 Oeste 0 1017.9 -- 87
2020-06-16 23:00:00 15.6 8 Oeste 19 Sudoeste 0.2 1017.6 -- 86
2020-06-16 22:00:00 16 8 Oeste 32 Oeste 0 1017.2 -- 80
2020-06-16 21:00:00 16.5 15 Oeste 31 Oeste 0 1017 -- 76
2020-06-16 20:00:00 17 18 Oeste 37 Oeste 0 1016.7 -- 74
2020-06-16 19:00:00 17.5 17 Oeste 38 Oeste 0 1016.6 -- 68
2020-06-16 18:00:00 18.5 16 Noroeste 32 Noroeste 0 1016.6 -- 67
2020-06-16 17:00:00 18 16 Oeste -- -- -- 1016.7 -- 68
2020-06-16 16:00:00 -- -- -- -- -- -- -- -- --
2020-06-16 15:00:00 -- -- -- -- -- -- -- -- --
2020-06-16 14:00:00 17.7 13 Noroeste 30 Noroeste 0 1016.8 -- 80
2020-06-16 13:00:00 16.3 7 Oeste 27 Oeste 0 1016.9 -- 75
2020-06-16 12:00:00 15.4 6 Sur 17 Oeste 0 1016.7 -- 92
2020-06-16 11:00:00 14.5 3 Sudoeste 9 Sudoeste 1 1016.9 -- 96
2020-06-16 10:00:00 14.2 3 Sur -- -- -- 1017.1 -- 97
2020-06-16 09:00:00 -- -- -- -- -- -- -- -- --
2020-06-16 08:00:00 13.8 2 Sur 5 Sur 2.2 1016.8 -- 99
2020-06-16 07:00:00 13.5 3 Sudoeste -- -- -- 1016.7 -- 99
2020-06-16 06:00:00 -- -- -- -- -- -- -- -- --
2020-06-16 05:00:00 -- -- -- -- -- -- -- -- --
2020-06-16 04:00:00 13.6 3 Sur 5 Sudeste 0 1017.3 -- 98
2020-06-16 03:00:00 13.9 4 Sudeste -- -- -- 1017.9 -- 97
2020-06-16 02:00:00 -- -- -- -- -- -- -- -- --
2020-06-16 01:00:00 14.4 4 Sudeste 9 Sudeste 0 1018.7 -- 96
2020-06-16 00:00:00 14.7 6 Sur -- -- -- 1019.3 -- 93
2020-06-15 23:00:00 -- -- -- -- -- -- -- -- --
2020-06-15 22:00:00 16.8 6 Noroeste 15 Noroeste 0 1018.9 -- 74
2020-06-15 21:00:00 17.9 9 Norte 13 Norte 0 1018.7 -- 70
2020-06-15 20:00:00 17.4 9 Norte -- -- -- 1018.9 -- 77
2020-06-15 19:00:00 -- -- -- -- -- -- -- -- --
2020-06-15 18:00:00 18.3 14 Noroeste 22 Noroeste 0 1019 -- 71
2020-06-15 17:00:00 19.1 13 Noroeste 26 Noroeste 0 1018.9 -- 67
2020-06-15 16:00:00 19.1 14 Noroeste 30 Noroeste 0 1019 -- 73
2020-06-15 15:00:00 19.3 18 Norte 28 Norte 0 1018.9 -- 67
2020-06-15 14:00:00 20.2 14 Norte -- -- -- 1018.9 -- 66
2020-06-15 13:00:00 -- -- -- -- -- -- -- -- --
2020-06-15 12:00:00 18.7 13 Norte 22 Norte 0 1018.8 -- 68
2020-06-15 11:00:00 18.7 13 Noroeste -- -- -- 1018.6 -- 65
2020-06-15 10:00:00 -- -- -- -- -- -- -- -- --
2020-06-15 09:00:00 15.2 2 Noroeste -- -- -- 1018.1 -- 94
2020-06-15 08:00:00 -- -- -- -- -- -- -- -- --
2020-06-15 07:00:00 11.3 3 Sudeste 7 Sudeste 0 1017.8 -- 100
2020-06-15 06:00:00 11.4 3 Este 5 Este 0 1017.6 -- 99
2020-06-15 05:00:00 11.9 3 Sur 6 Este 0 1017.8 -- 99
2020-06-15 04:00:00 11.5 3 Sur 6 Sur 0 1018.1 -- 99
2020-06-15 03:00:00 11.9 4 Sudeste 6 Norte 0 1018.1 -- 98
2020-06-15 02:00:00 12.7 0 Calma 7 Sudeste 0 1018.4 -- 98
2020-06-15 01:00:00 13.8 4 Sudeste 5 Sudeste 0 1018.7 -- 96
2020-06-15 00:00:00 14.9 3 Sudeste 6 Sudeste 0 1018.9 -- 95
2020-06-14 23:00:00 15.1 3 Sudeste 8 Sudoeste 2.4 1018.9 -- 95
2020-06-14 22:00:00 16.5 5 Noroeste 16 Noroeste 0 1018.5 -- 79
2020-06-14 21:00:00 16.9 8 Noroeste 22 Oeste 0 1018.4 -- 77
2020-06-14 20:00:00 17.5 8 Noroeste 18 Noroeste 0 1018.1 -- 74
2020-06-14 19:00:00 17.7 10 Noroeste 23 Noroeste 0 1017.8 -- 75
2020-06-14 18:00:00 17.8 10 Noroeste 25 Noroeste 0 1017.6 -- 76
2020-06-14 17:00:00 18.2 15 Noroeste 34 Norte 0 1017.3 -- 73
2020-06-14 16:00:00 19.9 26 Noroeste 35 Noroeste 0 1016.6 -- 64
2020-06-14 15:00:00 20.6 13 Norte 23 Norte 0 1016.3 -- 57
2020-06-14 14:00:00 19.9 12 Noroeste 29 Noroeste 0 1016.5 -- 62
2020-06-14 13:00:00 19.7 13 Norte 23 Norte 0 1016.1 -- 59
2020-06-14 12:00:00 20.8 11 Sudoeste 19 Sudoeste 0 1015.7 -- 50
2020-06-14 11:00:00 19.4 8 Sudoeste 20 Oeste 0 1015.9 -- 55
2020-06-14 10:00:00 17.2 7 Sudoeste 21 Sudoeste 0 1015.7 -- 61
2020-06-14 09:00:00 14.9 3 Oeste -- -- -- 1015.4 -- 85
2020-06-14 08:00:00 11.7 3 Este 6 Este 0 1014.9 -- 97
2020-06-14 07:00:00 10.1 3 Sudeste 8 Sudeste 0 1014.9 -- 97
2020-06-14 06:00:00 10.7 2 Norte 9 Sudeste 0 1014.8 -- 96
2020-06-14 05:00:00 11 3 Este 7 Sudeste 0 1014.8 -- 97
2020-06-14 04:00:00 11.5 5 Sudeste 6 Sudeste 0 1014.8 -- 96
2020-06-14 03:00:00 12.4 3 Sudoeste 9 Sudeste 0 1014.8 -- 94
2020-06-14 02:00:00 12.7 5 Sur 10 Noroeste 0 1014.9 -- 93
2020-06-14 01:00:00 12.7 4 Sur 8 Sudeste 0 1015 -- 93
2020-06-14 00:00:00 13.2 4 Sudeste 8 Sudeste 0 1015.1 -- 91
2020-06-13 23:00:00 14.5 3 Este 6 Este 0 1014.5 -- 86
2020-06-13 22:00:00 16 4 Oeste 21 Oeste 0 1014 -- 77
2020-06-13 21:00:00 16.5 11 Noroeste 23 Oeste 0 1013.2 -- 74
2020-06-13 20:00:00 17.4 13 Noroeste 25 Noroeste 0 1012.8 -- 71
2020-06-13 19:00:00 18.2 10 Noroeste 32 Norte 0 1012.2 -- 68
2020-06-13 18:00:00 19 22 Noroeste 36 Oeste 0 1011.2 -- 67
2020-06-13 17:00:00 20.9 14 Oeste 36 Noroeste 0 1010.7 -- 50
2020-06-13 16:00:00 19.1 13 Oeste 42 Oeste 0 1010.9 -- 58
2020-06-13 15:00:00 18.9 23 Noroeste 39 Oeste 0 1010.9 -- 58
2020-06-13 14:00:00 19.7 12 Noroeste 32 Sudoeste 0 1010 -- 56
2020-06-13 13:00:00 19.3 17 Oeste 34 Noroeste 0 1009.7 -- 53
2020-06-13 12:00:00 18.8 15 Oeste 30 Oeste 0 1009.4 -- 55
2020-06-13 11:00:00 18.2 11 Oeste 25 Oeste 0 1009 -- 58
2020-06-13 10:00:00 18 10 Sudoeste 22 Sudoeste 0 1008.4 -- 60
2020-06-13 09:00:00 16.3 8 Sudoeste 19 Sudoeste 0 1007.9 -- 65
2020-06-13 08:00:00 14.8 7 Sudoeste 18 Sudoeste 0 1007.3 -- 70
2020-06-13 07:00:00 14.3 5 Sur 27 Oeste 0 1006.7 -- 76
2020-06-13 06:00:00 14.8 9 Sudoeste 27 Oeste 0 1006 -- 72
2020-06-13 05:00:00 14.7 7 Sudoeste 23 Sudoeste 0 1005.2 -- 72
2020-06-13 04:00:00 14.4 7 Sudoeste 20 Sudoeste 0 1004.8 -- 74
2020-06-13 03:00:00 13.8 6 Sudoeste 18 Sudoeste 0 1004.7 -- 82
2020-06-13 02:00:00 13.3 5 Sudoeste 20 Sudoeste 0 1004.9 -- 89
2020-06-13 01:00:00 13.4 4 Sudoeste 16 Sudoeste 0.4 1004.8 -- 93
2020-06-13 00:00:00 13.5 5 Oeste 11 Sudoeste 0.4 1004.4 -- 93
2020-06-12 23:00:00 13.6 4 Sudoeste 21 Oeste 1.6 1003.7 -- 94
2020-06-12 22:00:00 14.1 6 Oeste 21 Oeste 0.2 1002.9 -- 91
2020-06-12 21:00:00 14.7 9 Oeste 28 Sudoeste 0.2 1002.2 -- 87
2020-06-12 20:00:00 15.9 15 Oeste 34 Noroeste 0 1001.4 -- 75
2020-06-12 19:00:00 17.4 18 Oeste 40 Oeste 0 1000.8 -- 57
2020-06-12 18:00:00 18.5 17 Noroeste 37 Noroeste 0 1000.3 -- 50
2020-06-12 17:00:00 18 20 Noroeste 33 Noroeste 0 1000.2 -- 57
2020-06-12 16:00:00 17 10 Sudoeste 28 Sur 0 1000.4 -- 65
2020-06-12 15:00:00 15.2 11 Sudoeste 26 Sudoeste 0.2 1000.7 -- 73
2020-06-12 14:00:00 14.1 7 Oeste 22 Oeste 0 1000.7 -- 80
2020-06-12 13:00:00 14.7 9 Oeste 28 Noroeste 0 999.9 -- 77
2020-06-12 12:00:00 14.6 8 Oeste 19 Oeste 0 999.5 -- 78
2020-06-12 11:00:00 13.5 11 Oeste 18 Oeste 0 999.3 -- 78
2020-06-12 10:00:00 12.3 8 Oeste 24 Oeste 0.2 999.3 -- 83
2020-06-12 09:00:00 12.6 15 Oeste 26 Sudoeste 0 998.8 -- 78
2020-06-12 08:00:00 12.4 10 Sudoeste 27 Sur 0 997.8 -- 75
2020-06-12 07:00:00 11.4 12 Sudoeste 26 Sudoeste 1.2 997.6 -- 83
2020-06-12 06:00:00 12 8 Sudoeste 27 Sudoeste 0.4 997.8 -- 85
2020-06-12 05:00:00 12.4 13 Oeste 40 Oeste 0.6 997 -- 80
2020-06-12 04:00:00 12.5 26 Oeste 50 Oeste 0.4 996.5 -- 84
2020-06-12 03:00:00 13.8 18 Oeste 41 Sudoeste 0.4 995.5 -- 79
2020-06-12 02:00:00 15.7 13 Sudoeste 38 Sudoeste 0 994.8 -- 57
2020-06-12 01:00:00 16 15 Sudoeste 42 Sur 0 995.3 -- 52
2020-06-12 00:00:00 14 8 Sur 24 Sudoeste 0 996.4 -- 63
2020-06-11 23:00:00 14.3 8 Sudoeste 26 Sudoeste 0.2 997.5 -- 61
2020-06-11 22:00:00 14.1 9 Sudoeste 19 Sur 0 998.1 -- 59
2020-06-11 21:00:00 14.4 10 Sudoeste 26 Sudoeste 0 999.7 -- 65
2020-06-11 20:00:00 14.4 10 Sudoeste 33 Sur 0 1001 -- 67
2020-06-11 19:00:00 11.6 12 Sudoeste 48 Sudoeste 0.6 1002.4 -- 81
2020-06-11 18:00:00 14.2 16 Oeste 44 Oeste 0 1002.5 -- 61
2020-06-11 17:00:00 14.7 14 Oeste 57 Noroeste 0 1002.7 -- 68
2020-06-11 16:00:00 16.3 21 Oeste 53 Oeste 0 1002.8 -- 60
2020-06-11 15:00:00 15.7 20 Oeste 44 Oeste 0 1003.3 -- 66
2020-06-11 14:00:00 14.2 6 Oeste 30 Sudoeste 0 1004.1 -- 85
2020-06-11 13:00:00 15 11 Oeste 28 Oeste 0.2 1004.4 -- 82
2020-06-11 12:00:00 14.1 7 Sudoeste 33 Noroeste 0 1004.6 -- 84
2020-06-11 11:00:00 13.3 13 Oeste 39 Oeste 0.2 1005 -- 90
2020-06-11 10:00:00 14.2 14 Noroeste -- -- -- 1004.4 -- 94
2020-06-11 09:00:00 -- -- -- -- -- -- -- -- --
2020-06-11 08:00:00 16 9 Oeste 22 Oeste 0 1004.5 -- 77
2020-06-11 07:00:00 15.5 6 Sudoeste 14 Sudoeste 0 1004.6 -- 74
2020-06-11 06:00:00 14.4 3 Sudoeste -- -- -- 1005.6 -- 86
2020-06-11 05:00:00 -- -- -- -- -- -- -- -- --
2020-06-11 04:00:00 -- -- -- -- -- -- -- -- --
2020-06-11 03:00:00 -- -- -- -- -- -- -- -- --
2020-06-11 02:00:00 13.2 2 Sur 5 Sudoeste 0 1009.8 -- 89
2020-06-11 01:00:00 14.2 3 Sur 6 Sur 0 1010.9 -- 83
2020-06-11 00:00:00 15 2 Sudoeste 9 Sudoeste 0 1011.7 -- 79
2020-06-10 23:00:00 15.5 3 Sudoeste 8 Sur 0 1012.4 -- 79
2020-06-10 22:00:00 15.7 3 Sur 5 Sur 0 1012.6 -- 76
2020-06-10 21:00:00 16.1 0 Calma 9 Nordeste 0 1013 -- 72
2020-06-10 20:00:00 16.3 5 Norte 10 Norte 0 1013.3 -- 74
2020-06-10 19:00:00 16.6 5 Nordeste 14 Norte 0 1013.7 -- 73
2020-06-10 18:00:00 17.8 8 Norte -- -- -- 1014.1 -- 70
2020-06-10 17:00:00 -- -- -- -- -- -- -- -- --
2020-06-10 16:00:00 17.4 8 Norte 18 Norte 0 1014.9 -- 72
2020-06-10 15:00:00 18 12 Norte 18 Norte 0 1015.1 -- 70
2020-06-10 14:00:00 18.8 7 Nordeste 13 Norte 0 1015.5 -- 68
2020-06-10 13:00:00 17.1 6 Norte 12 Noroeste 0 1016.1 -- 71
2020-06-10 12:00:00 16.8 5 Norte 13 Norte 0 1016.3 -- 76
2020-06-10 11:00:00 17.1 6 Noroeste 14 Noroeste 0 1016.3 -- 74
2020-06-10 10:00:00 16.4 3 Oeste 7 Oeste 0 1016.5 -- 77
2020-06-10 09:00:00 14.9 3 Oeste 5 Oeste 0 1016.6 -- 83
2020-06-10 08:00:00 13.7 2 Norte 3 Noroeste 0 1016.6 -- 90
2020-06-10 07:00:00 13.1 3 Sudeste 5 Sur 0 1016.7 -- 93
2020-06-10 06:00:00 13 4 Sudeste 5 Sudeste 0 1016.8 -- 94
2020-06-10 05:00:00 12.8 4 Sudeste -- -- -- 1016.9 -- 94
2020-06-10 04:00:00 -- -- -- -- -- -- -- -- --
2020-06-10 03:00:00 12.1 3 Sudeste 5 Sudeste 0 1018.1 -- 94
2020-06-10 02:00:00 11.9 0 Calma 3 Sudeste 0 1018.5 -- 93
2020-06-10 01:00:00 11.7 3 Sudeste 5 Sudeste 0 1018.7 -- 94
2020-06-10 00:00:00 12.4 3 Sudeste 6 Sudeste 0 1018.9 -- 92
2020-06-09 23:00:00 13.6 4 Sudeste 5 Sudeste 0 1018.7 -- 87
2020-06-09 22:00:00 15.5 2 Nordeste 10 Nordeste 0 1018.4 -- 75
2020-06-09 21:00:00 16.8 7 Norte 19 Norte 0 1018.3 -- 69
2020-06-09 20:00:00 18.2 7 Nordeste 20 Norte 0 1018.3 -- 63
2020-06-09 19:00:00 18.4 11 Norte 22 Norte 0 1018.3 -- 60
2020-06-09 18:00:00 17.8 14 Norte 23 Norte 0 1018.5 -- 64
2020-06-09 17:00:00 19.4 12 Norte 22 Noroeste 0 1018.5 -- 58
2020-06-09 16:00:00 18.4 12 Norte 19 Norte 0 1018.7 -- 54
2020-06-09 15:00:00 17.9 13 Noroeste 21 Norte 0 1018.8 -- 60
2020-06-09 14:00:00 17.3 12 Noroeste -- -- -- 1019 -- 68
2020-06-09 13:00:00 16.7 15 Noroeste 27 Noroeste 0 1019.2 -- 65
2020-06-09 12:00:00 17.6 6 Sur 18 Noroeste 0 1018.7 -- 61
2020-06-09 11:00:00 17.6 6 Oeste 12 Oeste 0 1018.6 -- 63
2020-06-09 10:00:00 15.4 4 Sudoeste 13 Sudoeste 0 1018.6 -- 73
2020-06-09 09:00:00 14.5 6 Sudoeste 13 Sudoeste 0 1018.5 -- 77
2020-06-09 08:00:00 13.8 4 Sur 11 Sudoeste 0 1018.3 -- 80
2020-06-09 07:00:00 13.7 5 Sudoeste 10 Sur 0 1018.1 -- 80
2020-06-09 06:00:00 13.6 3 Sudoeste -- -- -- 1017.9 -- 81
2020-06-09 05:00:00 13.7 5 Sur 13 Sur 0 1017.8 -- 80
2020-06-09 04:00:00 13.6 5 Sudoeste 10 Sudoeste 0 1018.1 -- 81
2020-06-09 03:00:00 13.4 4 Sur 8 Sudoeste 0 1018.4 -- 84
2020-06-09 02:00:00 13.7 3 Sudoeste 6 Sudoeste 0 1018.9 -- 83
2020-06-09 01:00:00 13.7 4 Sudoeste 9 Sur 0 1019.1 -- 82
2020-06-09 00:00:00 14.1 5 Sudoeste 10 Sur 0 1019.3 -- 81
2020-06-08 23:00:00 14.8 4 Sudoeste 14 Oeste 0 1019.1 -- 77
2020-06-08 22:00:00 15.7 10 Noroeste 19 Noroeste 0 1018.5 -- 70
2020-06-08 21:00:00 16.5 10 Noroeste 21 Noroeste 0 1018.2 -- 65
2020-06-08 20:00:00 16.7 11 Noroeste 19 Noroeste 0 1018 -- 67
2020-06-08 19:00:00 16.6 5 Noroeste 19 Norte 0 1017.9 -- 66
2020-06-08 18:00:00 17 9 Noroeste 14 Noroeste 0 1017.9 -- 67
2020-06-08 17:00:00 15.9 5 Oeste 25 Noroeste 0 1017.9 -- 69
2020-06-08 16:00:00 16.4 14 Noroeste 34 Noroeste 0 1017.9 -- 75
2020-06-08 15:00:00 17.4 11 Noroeste 18 Noroeste 0 1017.5 -- 71
2020-06-08 14:00:00 16.5 6 Sudoeste 15 Oeste 0 1017.4 -- 71
2020-06-08 13:00:00 16.4 8 Oeste 17 Oeste 0 1017.2 -- 75
2020-06-08 12:00:00 15.7 5 Sudoeste 19 Sudoeste 0 1017 -- 79
2020-06-08 11:00:00 13.7 6 Sudoeste 18 Sudoeste 0 1016.7 -- 85
2020-06-08 10:00:00 12.8 5 Sudoeste 15 Sudoeste 0.2 1016.5 -- 90
2020-06-08 09:00:00 12.3 6 Sudoeste 16 Sudoeste 0.4 1015.9 -- 90
2020-06-08 08:00:00 11.6 6 Sudoeste 17 Sudoeste 0 1015.6 -- 90
2020-06-08 07:00:00 11.5 5 Sur 10 Sur 1.2 1015.2 -- 91
2020-06-08 06:00:00 12 4 Sudoeste 16 Sur 0.6 1015 -- 87
2020-06-08 05:00:00 12.4 6 Sudoeste 15 Sudoeste 0 1014.6 -- 81
2020-06-08 04:00:00 12.5 5 Sudoeste 10 Sudoeste 0.2 1014.9 -- 82
2020-06-08 03:00:00 12.7 3 Oeste 8 Sudoeste 0 1015.3 -- 81
2020-06-08 02:00:00 12.7 4 Sudoeste 9 Sudoeste 0 1015.2 -- 81
2020-06-08 01:00:00 12.5 0 Calma 5 Oeste 0 1015.2 -- 83
2020-06-08 00:00:00 12.8 3 Sur 13 Sudoeste 0 1015.4 -- 81
2020-06-07 23:00:00 13.2 5 Sudoeste 10 Sur 0 1015 -- 79
2020-06-07 22:00:00 14.5 2 Oeste 15 Noroeste 0 1014.5 -- 71
2020-06-07 21:00:00 16.4 6 Noroeste 19 Noroeste 0 1014.5 -- 55
2020-06-07 20:00:00 16 5 Norte 14 Norte 0 1014 -- 62
2020-06-07 19:00:00 15.8 7 Noroeste 19 Nordeste 0 1013.9 -- 64
2020-06-07 18:00:00 16.5 11 Norte 21 Norte 0 1013.6 -- 61
2020-06-07 17:00:00 16.3 3 Este 17 Norte 0 1013.4 -- 62
2020-06-07 16:00:00 15.1 15 Norte 28 Norte 0 1013.5 -- 65
2020-06-07 15:00:00 15.5 10 Norte 23 Norte 0 1013.1 -- 68
2020-06-07 14:00:00 16.8 8 Noroeste 14 Noroeste 0 1012.9 -- 54
2020-06-07 13:00:00 16.1 4 Noroeste 12 Sudoeste 0 1012.7 -- 63
2020-06-07 12:00:00 14.9 5 Oeste 10 Oeste 0 1012.4 -- 72
2020-06-07 11:00:00 13.8 4 Oeste 8 Sur 0 1012.1 -- 82
2020-06-07 10:00:00 12 4 Sur 12 Sur 0 1011.8 -- 93
2020-06-07 09:00:00 11.7 4 Nordeste 13 Noroeste 0.2 1011.6 -- 94
2020-06-07 08:00:00 11.9 5 Noroeste 10 Noroeste 0 1010.8 -- 95
2020-06-07 07:00:00 11.4 0 Calma 9 Sur 0.2 1010.2 -- 97
2020-06-07 06:00:00 11.6 5 Sur 8 Sur 0.4 1010 -- 97
2020-06-07 05:00:00 11.9 3 Sudoeste 5 Oeste 0 1010.1 -- 95
2020-06-07 04:00:00 12 0 Calma 10 Sudeste 0 1010.1 -- 94
2020-06-07 03:00:00 12.3 5 Este 13 Norte 0 1010 -- 94
2020-06-07 02:00:00 12.6 3 Sudeste 8 Sur 0 1010 -- 96
2020-06-07 01:00:00 12.7 3 Sur 6 Sur 0 1010.1 -- 97
2020-06-07 00:00:00 12.7 4 Sudeste 9 Este 0.2 1010.1 -- 96